createdAt,value
2023-04-19T00:00:30.795Z,11.31
2023-04-19T00:01:32.547Z,11.35
2023-04-19T00:02:34.865Z,11.35
2023-04-19T00:03:36.760Z,11.28
2023-04-19T00:04:38.636Z,11.20
2023-04-19T00:05:40.252Z,11.22
2023-04-19T00:06:41.817Z,11.18
2023-04-19T00:07:43.442Z,11.07
2023-04-19T00:08:44.977Z,10.93
2023-04-19T00:09:46.518Z,10.92
2023-04-19T00:10:48.080Z,10.98
2023-04-19T00:11:50.106Z,10.99
2023-04-19T00:12:52.030Z,11.03
2023-04-19T00:13:53.589Z,11.04
2023-04-19T00:14:55.130Z,11.09
2023-04-19T00:15:56.705Z,11.10
2023-04-19T00:16:58.352Z,11.20
2023-04-19T00:17:59.973Z,11.24
2023-04-19T00:19:01.531Z,11.26
2023-04-19T00:20:04.212Z,11.24
2023-04-19T00:21:06.143Z,11.21
2023-04-19T00:22:07.674Z,11.24
2023-04-19T00:23:09.325Z,11.29
2023-04-19T00:24:10.895Z,11.32
2023-04-19T00:25:12.468Z,11.32
2023-04-19T00:26:14.043Z,11.29
2023-04-19T00:27:16.887Z,11.26
2023-04-19T00:28:18.984Z,11.27
2023-04-19T00:29:20.809Z,11.17
2023-04-19T00:30:22.385Z,11.14
2023-04-19T00:31:25.691Z,11.17
2023-04-19T00:32:27.317Z,11.19
2023-04-19T00:33:28.940Z,11.21
2023-04-19T00:34:32.232Z,11.17
2023-04-19T00:35:33.802Z,11.24
2023-04-19T00:36:35.350Z,11.20
2023-04-19T00:37:36.939Z,11.15
2023-04-19T00:38:39.099Z,11.15
2023-04-19T00:39:40.682Z,11.06
2023-04-19T00:40:42.226Z,11.01
2023-04-19T00:41:43.826Z,11.09
2023-04-19T00:42:45.416Z,11.01
2023-04-19T00:43:47.021Z,11.04
2023-04-19T00:44:48.576Z,11.08
2023-04-19T00:45:50.635Z,11.08
2023-04-19T00:46:53.865Z,11.13
2023-04-19T00:47:56.160Z,11.13
2023-04-19T00:48:57.998Z,11.12
2023-04-19T00:49:59.801Z,11.15
2023-04-19T00:51:01.553Z,11.08
2023-04-19T00:52:03.301Z,11.02
2023-04-19T00:53:04.976Z,10.95
2023-04-19T00:54:07.481Z,11.02
2023-04-19T00:55:09.230Z,11.02
2023-04-19T00:56:11.167Z,10.96
2023-04-19T00:57:12.793Z,10.91
2023-04-19T00:58:14.556Z,10.94
2023-04-19T00:59:18.292Z,10.97
2023-04-19T01:00:20.063Z,11.00
2023-04-19T01:01:21.836Z,10.99
2023-04-19T01:02:24.664Z,10.95
2023-04-19T01:03:26.765Z,10.96
2023-04-19T01:04:28.642Z,10.98
2023-04-19T01:05:30.628Z,10.94
2023-04-19T01:06:33.292Z,10.95
2023-04-19T01:07:35.037Z,10.96
2023-04-19T01:08:36.698Z,10.98
2023-04-19T01:09:43.696Z,10.96
2023-04-19T01:10:45.256Z,10.99
2023-04-19T01:11:46.849Z,10.95
2023-04-19T01:12:49.814Z,10.93
2023-04-19T01:13:51.513Z,10.96
2023-04-19T01:14:53.080Z,10.99
2023-04-19T01:15:55.399Z,10.98
2023-04-19T01:16:57.588Z,10.99
2023-04-19T01:18:00.044Z,10.93
2023-04-19T01:19:02.372Z,10.95
2023-04-19T01:20:05.521Z,10.94
2023-04-19T01:21:08.352Z,10.79
2023-04-19T01:22:10.138Z,10.87
2023-04-19T01:23:11.790Z,10.89
2023-04-19T01:24:13.579Z,10.90
2023-04-19T01:25:15.908Z,10.94
2023-04-19T01:26:19.067Z,10.94
2023-04-19T01:27:20.636Z,10.99
2023-04-19T01:28:22.207Z,10.98
2023-04-19T01:29:24.907Z,10.99
2023-04-19T01:30:26.471Z,11.00
2023-04-19T01:31:30.491Z,10.96
2023-04-19T01:32:32.127Z,10.96
2023-04-19T01:33:33.775Z,10.98
2023-04-19T01:34:35.318Z,10.94
2023-04-19T01:35:39.145Z,11.01
2023-04-19T01:36:42.339Z,11.00
2023-04-19T01:37:43.970Z,10.97
2023-04-19T01:38:45.537Z,11.01
2023-04-19T01:39:47.132Z,11.05
2023-04-19T01:40:48.756Z,10.90
2023-04-19T01:41:50.373Z,10.92
2023-04-19T01:42:52.592Z,11.01
2023-04-19T01:43:54.179Z,11.00
2023-04-19T01:44:55.748Z,10.95
2023-04-19T01:45:57.343Z,11.00
2023-04-19T01:46:58.965Z,10.95
2023-04-19T01:48:00.870Z,10.90
2023-04-19T01:49:02.413Z,10.87
2023-04-19T01:50:04.292Z,10.86
2023-04-19T01:51:05.970Z,10.86
2023-04-19T01:52:09.657Z,10.83
2023-04-19T01:53:11.240Z,10.82
2023-04-19T01:54:13.034Z,10.87
2023-04-19T01:55:14.746Z,10.83
2023-04-19T01:56:16.320Z,10.80
2023-04-19T01:57:17.872Z,10.85
2023-04-19T01:58:19.415Z,10.90
2023-04-19T01:59:21.070Z,10.98
2023-04-19T02:00:22.778Z,10.85
2023-04-19T02:01:24.609Z,10.82
2023-04-19T02:02:26.455Z,10.81
2023-04-19T02:03:29.109Z,10.66
2023-04-19T02:04:30.868Z,10.65
2023-04-19T02:05:33.022Z,10.62
2023-04-19T02:06:34.709Z,10.70
2023-04-19T02:07:39.055Z,10.62
2023-04-19T02:08:42.281Z,10.56
2023-04-19T02:09:43.855Z,10.59
2023-04-19T02:10:46.602Z,10.57
2023-04-19T02:11:48.183Z,10.51
2023-04-19T02:12:49.805Z,10.54
2023-04-19T02:13:51.456Z,10.56
2023-04-19T02:14:53.005Z,10.60
2023-04-19T02:16:04.772Z,10.67
2023-04-19T02:17:06.460Z,10.63
2023-04-19T02:18:08.113Z,10.63
2023-04-19T02:19:09.765Z,10.63
2023-04-19T02:20:11.376Z,10.63
2023-04-19T02:21:12.929Z,10.66
2023-04-19T02:22:15.106Z,10.61
2023-04-19T02:23:16.654Z,10.48
2023-04-19T02:24:18.237Z,10.52
2023-04-19T02:25:20.104Z,10.60
2023-04-19T02:26:21.700Z,10.62
2023-04-19T02:27:23.273Z,10.59
2023-04-19T02:28:24.934Z,10.62
2023-04-19T02:29:26.502Z,10.59
2023-04-19T02:30:28.079Z,10.63
2023-04-19T02:31:30.068Z,10.58
2023-04-19T02:32:31.688Z,10.60
2023-04-19T02:33:33.250Z,10.62
2023-04-19T02:34:35.701Z,10.62
2023-04-19T02:35:37.409Z,10.61
2023-04-19T02:36:38.974Z,10.57
2023-04-19T02:37:40.522Z,10.61
2023-04-19T02:38:42.127Z,10.61
2023-04-19T02:39:43.740Z,10.68
2023-04-19T02:40:45.273Z,10.72
2023-04-19T02:41:46.853Z,10.77
2023-04-19T02:42:48.642Z,10.80
2023-04-19T02:43:50.442Z,10.72
2023-04-19T02:44:52.026Z,10.68
2023-04-19T02:45:53.667Z,10.53
2023-04-19T02:46:56.214Z,10.48
2023-04-19T02:47:57.850Z,10.54
2023-04-19T02:49:01.075Z,10.54
2023-04-19T02:50:02.723Z,10.49
2023-04-19T02:51:08.458Z,10.42
2023-04-19T02:52:10.749Z,10.27
2023-04-19T02:53:14.974Z,10.25
2023-04-19T02:54:16.961Z,10.34
2023-04-19T02:55:20.020Z,10.33
2023-04-19T02:56:24.785Z,10.30
2023-04-19T02:57:26.377Z,10.31
2023-04-19T02:58:28.093Z,10.34
2023-04-19T02:59:37.260Z,10.33
2023-04-19T03:00:39.832Z,10.31
2023-04-19T03:01:45.768Z,10.31
2023-04-19T03:02:47.938Z,10.34
2023-04-19T03:03:49.738Z,10.36
2023-04-19T03:04:51.677Z,10.35
2023-04-19T03:05:53.333Z,10.35
2023-04-19T03:06:55.004Z,10.38
2023-04-19T03:07:56.659Z,10.30
2023-04-19T03:08:58.351Z,10.32
2023-04-19T03:09:59.978Z,10.26
2023-04-19T03:11:01.591Z,10.19
2023-04-19T03:12:07.540Z,10.26
2023-04-19T03:13:09.171Z,10.23
2023-04-19T03:14:10.768Z,10.26
2023-04-19T03:15:13.182Z,10.19
2023-04-19T03:16:14.812Z,10.18
2023-04-19T03:17:17.587Z,10.08
2023-04-19T03:18:19.918Z,10.11
2023-04-19T03:19:21.798Z,10.09
2023-04-19T03:20:26.373Z,10.08
2023-04-19T03:21:28.062Z,10.06
2023-04-19T03:22:30.689Z,10.08
2023-04-19T03:23:32.315Z,10.04
2023-04-19T03:24:37.658Z,10.14
2023-04-19T03:25:50.957Z,10.14
2023-04-19T03:26:59.996Z,10.16
2023-04-19T03:28:04.647Z,10.16
2023-04-19T03:29:34.953Z,10.19
2023-04-19T03:30:43.058Z,10.22
2023-04-19T03:31:44.735Z,10.19
2023-04-19T03:32:48.086Z,10.19
2023-04-19T03:33:50.130Z,10.09
2023-04-19T03:34:52.857Z,10.04
2023-04-19T03:35:54.438Z,9.96
2023-04-19T03:36:56.309Z,9.83
2023-04-19T03:37:58.370Z,9.89
2023-04-19T03:38:59.970Z,9.87
2023-04-19T03:40:01.912Z,9.90
2023-04-19T03:41:21.123Z,9.86
2023-04-19T03:42:28.768Z,9.90
2023-04-19T03:43:47.346Z,9.78
2023-04-19T03:44:48.925Z,9.80
2023-04-19T03:45:52.832Z,9.72
2023-04-19T03:46:54.512Z,9.73
2023-04-19T03:48:02.639Z,9.77
2023-04-19T03:49:04.816Z,9.76
2023-04-19T03:50:06.895Z,9.72
2023-04-19T03:51:09.495Z,9.68
2023-04-19T03:52:11.045Z,9.74
2023-04-19T03:53:12.717Z,9.78
2023-04-19T03:54:14.690Z,9.77
2023-04-19T03:55:16.465Z,9.74
2023-04-19T03:56:18.068Z,9.71
2023-04-19T03:57:19.829Z,9.66
2023-04-19T03:58:22.547Z,9.63
2023-04-19T03:59:37.117Z,9.67
2023-04-19T04:00:38.736Z,9.67
2023-04-19T04:01:40.303Z,9.62
2023-04-19T04:02:42.142Z,9.65
2023-04-19T04:03:46.219Z,9.64
2023-04-19T04:04:53.572Z,9.62
2023-04-19T04:05:55.736Z,9.61
2023-04-19T04:06:57.388Z,9.59
2023-04-19T04:07:58.964Z,9.60
2023-04-19T04:09:01.099Z,9.57
2023-04-19T04:10:02.712Z,9.55
2023-04-19T04:11:08.579Z,9.59
2023-04-19T04:12:10.366Z,9.54
2023-04-19T04:13:12.359Z,9.49
2023-04-19T04:14:21.263Z,9.51
2023-04-19T04:15:23.060Z,9.47
2023-04-19T04:16:27.992Z,9.48
2023-04-19T04:17:30.632Z,9.52
2023-04-19T04:18:32.690Z,9.54
2023-04-19T04:19:35.285Z,9.53
2023-04-19T04:20:37.110Z,9.57
2023-04-19T04:21:42.803Z,9.53
2023-04-19T04:22:45.403Z,9.49
2023-04-19T04:23:48.711Z,9.46
2023-04-19T04:24:58.639Z,9.44
2023-04-19T04:26:09.356Z,9.41
2023-04-19T04:27:23.025Z,9.45
2023-04-19T04:28:28.397Z,9.48
2023-04-19T04:29:32.375Z,9.52
2023-04-19T04:30:35.920Z,9.49
2023-04-19T04:31:38.619Z,9.48
2023-04-19T04:32:40.280Z,9.53
2023-04-19T04:33:42.087Z,9.54
2023-04-19T04:34:45.632Z,9.59
2023-04-19T04:35:55.036Z,9.59
2023-04-19T04:36:58.709Z,9.60
2023-04-19T04:38:00.452Z,9.63
2023-04-19T04:39:02.657Z,9.66
2023-04-19T04:40:05.829Z,9.63
2023-04-19T04:41:08.881Z,9.55
2023-04-19T04:42:10.487Z,9.54
2023-04-19T04:43:12.056Z,9.54
2023-04-19T04:44:13.655Z,9.51
2023-04-19T04:45:17.411Z,9.54
2023-04-19T04:46:19.946Z,9.52
2023-04-19T04:47:21.656Z,9.51
2023-04-19T04:48:28.448Z,9.52
2023-04-19T04:49:30.853Z,9.56
2023-04-19T04:50:33.330Z,9.53
2023-04-19T04:51:35.192Z,9.53
2023-04-19T04:52:36.843Z,9.53
2023-04-19T04:53:45.611Z,9.58
2023-04-19T04:54:47.187Z,9.60
2023-04-19T04:55:57.385Z,9.54
2023-04-19T04:56:59.305Z,9.47
2023-04-19T04:58:01.073Z,9.36
2023-04-19T04:59:11.539Z,9.27
2023-04-19T05:00:16.905Z,9.36
2023-04-19T05:01:27.944Z,9.33
2023-04-19T05:02:29.869Z,9.27
2023-04-19T05:03:31.556Z,9.23
2023-04-19T05:04:36.631Z,9.25
2023-04-19T05:05:38.769Z,9.32
2023-04-19T05:06:40.335Z,9.34
2023-04-19T05:07:43.442Z,9.40
2023-04-19T05:08:45.263Z,9.47
2023-04-19T05:09:54.715Z,9.47
2023-04-19T05:11:00.564Z,9.41
2023-04-19T05:12:05.486Z,9.47
2023-04-19T05:13:07.050Z,9.47
2023-04-19T05:14:08.791Z,9.46
2023-04-19T05:15:10.400Z,9.47
2023-04-19T05:16:13.159Z,9.40
2023-04-19T05:17:17.743Z,9.42
2023-04-19T05:18:20.609Z,9.46
2023-04-19T05:19:23.883Z,9.47
2023-04-19T05:20:31.426Z,9.46
2023-04-19T05:21:42.486Z,9.47
2023-04-19T05:22:45.096Z,9.49
2023-04-19T05:23:47.709Z,9.48
2023-04-19T05:24:49.760Z,9.48
2023-04-19T05:25:52.581Z,9.50
2023-04-19T05:26:55.640Z,9.48
2023-04-19T05:27:58.558Z,9.47
2023-04-19T05:29:04.333Z,9.43
2023-04-19T05:30:16.234Z,9.39
2023-04-19T05:31:19.648Z,9.35
2023-04-19T05:32:34.011Z,9.37
2023-04-19T05:33:38.491Z,9.37
2023-04-19T05:34:40.057Z,9.35
2023-04-19T05:35:46.275Z,9.37
2023-04-19T05:36:47.830Z,9.37
2023-04-19T05:37:50.116Z,9.34
2023-04-19T05:38:51.710Z,9.27
2023-04-19T05:39:53.273Z,9.24
2023-04-19T05:40:54.785Z,9.27
2023-04-19T05:41:56.326Z,9.27
2023-04-19T05:42:58.095Z,9.28
2023-04-19T05:43:59.912Z,9.30
2023-04-19T05:45:03.347Z,9.30
2023-04-19T05:46:06.932Z,9.31
2023-04-19T05:47:08.584Z,9.35
2023-04-19T05:48:45.678Z,9.35
2023-04-19T05:50:03.526Z,9.39
2023-04-19T05:51:09.001Z,9.42
2023-04-19T05:52:29.466Z,9.32
2023-04-19T05:53:35.498Z,9.34
2023-04-19T05:57:40.551Z,9.20
2023-04-19T06:06:45.721Z,9.11
2023-04-19T06:07:55.237Z,9.03
2023-04-19T06:10:18.398Z,9.08
2023-04-19T06:11:38.473Z,9.01
2023-04-19T06:14:17.168Z,8.92
2023-04-19T06:15:19.378Z,8.82
2023-04-19T06:16:21.717Z,8.83
2023-04-19T06:17:23.422Z,8.79
2023-04-19T06:18:25.040Z,8.82
2023-04-19T06:19:26.576Z,8.80
2023-04-19T06:20:28.259Z,8.74
2023-04-19T06:21:32.952Z,8.73
2023-04-19T06:22:34.592Z,8.74
2023-04-19T06:23:36.143Z,8.71
2023-04-19T06:24:37.695Z,8.58
2023-04-19T06:25:39.294Z,8.46
2023-04-19T06:26:40.879Z,8.35
2023-04-19T06:27:42.419Z,8.31
2023-04-19T06:28:43.950Z,8.28
2023-04-19T06:29:45.551Z,8.32
2023-04-19T06:30:47.904Z,8.33
2023-04-19T06:31:49.676Z,8.27
2023-04-19T06:32:51.454Z,8.29
2023-04-19T06:33:53.109Z,8.37
2023-04-19T06:34:54.698Z,8.44
2023-04-19T06:37:06.488Z,8.27
2023-04-19T06:38:08.134Z,8.34
2023-04-19T06:39:09.745Z,8.33
2023-04-19T06:40:11.566Z,8.33
2023-04-19T06:41:13.154Z,8.28
2023-04-19T06:42:14.931Z,8.16
2023-04-19T06:43:16.668Z,8.17
2023-04-19T06:44:20.882Z,8.18
2023-04-19T06:45:22.735Z,8.08
2023-04-19T06:47:35.597Z,8.00
2023-04-19T06:48:38.194Z,7.99
2023-04-19T06:49:39.752Z,8.04
2023-04-19T06:50:41.614Z,8.01
2023-04-19T06:51:43.158Z,7.87
2023-04-19T06:52:44.751Z,7.64
2023-04-19T06:53:46.292Z,7.59
2023-04-19T06:54:50.609Z,7.64
2023-04-19T06:56:02.582Z,7.71
2023-04-19T06:57:04.294Z,7.64
2023-04-19T06:58:05.852Z,7.73
2023-04-19T06:59:07.581Z,7.78
2023-04-19T07:00:10.591Z,7.82
2023-04-19T07:01:12.347Z,7.63
2023-04-19T07:02:14.025Z,7.63
2023-04-19T07:03:15.867Z,7.63
2023-04-19T07:04:17.962Z,7.46
2023-04-19T07:05:19.962Z,7.42
2023-04-19T07:06:21.523Z,7.37
2023-04-19T07:07:23.189Z,7.42
2023-04-19T07:08:32.245Z,7.36
2023-04-19T07:09:40.629Z,7.38
2023-04-19T07:10:42.239Z,7.42
2023-04-19T07:11:43.853Z,7.40
2023-04-19T07:12:45.421Z,7.38
2023-04-19T07:13:46.977Z,7.34
2023-04-19T07:14:48.546Z,7.34
2023-04-19T07:15:50.137Z,7.35
2023-04-19T07:16:52.766Z,7.36
2023-04-19T07:17:54.463Z,7.38
2023-04-19T07:18:56.361Z,7.26
2023-04-19T07:19:58.008Z,7.25
2023-04-19T07:20:59.866Z,7.23
2023-04-19T07:22:01.567Z,7.23
2023-04-19T07:23:03.457Z,7.24
2023-04-19T07:24:06.230Z,7.26
2023-04-19T07:25:08.641Z,7.22
2023-04-19T07:26:10.226Z,7.17
2023-04-19T07:27:12.140Z,7.24
2023-04-19T07:28:13.725Z,7.22
2023-04-19T07:29:15.623Z,7.21
2023-04-19T07:30:17.323Z,7.19
2023-04-19T07:31:19.231Z,7.12
2023-04-19T07:32:20.825Z,7.07
2023-04-19T07:33:25.805Z,6.84
2023-04-19T07:34:29.102Z,6.87
2023-04-19T07:35:31.072Z,6.96
2023-04-19T07:36:32.654Z,6.92
2023-04-19T07:37:34.212Z,6.86
2023-04-19T07:38:35.804Z,6.86
2023-04-19T07:39:37.352Z,6.78
2023-04-19T07:40:38.954Z,6.80
2023-04-19T07:41:40.537Z,6.86
2023-04-19T07:42:42.753Z,6.83
2023-04-19T07:43:44.391Z,6.79
2023-04-19T07:44:45.948Z,6.80
2023-04-19T07:45:47.621Z,6.87
2023-04-19T07:46:49.291Z,6.82
2023-04-19T07:47:51.047Z,6.86
2023-04-19T07:48:52.694Z,6.89
2023-04-19T07:49:55.632Z,6.80
2023-04-19T07:50:57.275Z,6.77
2023-04-19T07:51:58.819Z,6.76
2023-04-19T07:53:00.373Z,6.72
2023-04-19T07:54:01.917Z,6.68
2023-04-19T07:55:03.835Z,6.60
2023-04-19T07:56:06.907Z,6.52
2023-04-19T07:57:08.468Z,6.44
2023-04-19T07:58:10.102Z,6.39
2023-04-19T07:59:11.691Z,6.35
2023-04-19T08:00:16.840Z,6.44
2023-04-19T08:01:18.503Z,6.50
2023-04-19T08:02:21.114Z,6.49
2023-04-19T08:03:23.244Z,6.52
2023-04-19T08:04:25.698Z,6.54
2023-04-19T08:05:27.872Z,6.53
2023-04-19T08:06:29.593Z,6.43
2023-04-19T08:07:31.142Z,6.41
2023-04-19T08:08:34.044Z,6.34
2023-04-19T08:09:35.799Z,6.46
2023-04-19T08:10:37.353Z,6.39
2023-04-19T08:11:38.896Z,6.42
2023-04-19T08:12:50.378Z,6.43
2023-04-19T08:14:09.250Z,6.55
2023-04-19T08:15:41.142Z,6.58
2023-04-19T08:17:19.550Z,6.44
2023-04-19T08:18:03.667Z,6.56
2023-04-19T08:19:05.334Z,6.50
2023-04-19T08:20:07.591Z,6.48
2023-04-19T08:21:09.215Z,6.54
2023-04-19T08:22:10.802Z,6.65
2023-04-19T08:23:22.338Z,6.47
2023-04-19T08:24:27.509Z,6.51
2023-04-19T08:25:29.109Z,6.55
2023-04-19T08:26:30.669Z,6.49
2023-04-19T08:27:32.227Z,6.49
2023-04-19T08:28:33.803Z,6.53
2023-04-19T08:29:35.381Z,6.46
2023-04-19T08:30:36.955Z,6.42
2023-04-19T08:31:38.531Z,6.47
2023-04-19T08:32:40.239Z,6.49
2023-04-19T08:33:41.833Z,6.56
2023-04-19T08:34:43.422Z,6.58
2023-04-19T08:35:45.026Z,6.59
2023-04-19T08:36:59.898Z,6.50
2023-04-19T08:38:04.721Z,6.57
2023-04-19T08:39:12.245Z,6.66
2023-04-19T08:40:17.148Z,6.74
2023-04-19T08:41:19.587Z,6.63
2023-04-19T08:42:33.084Z,6.63
2023-04-19T08:43:40.474Z,6.65
2023-04-19T08:45:02.238Z,6.61
2023-04-19T08:46:05.710Z,6.53
2023-04-19T08:47:09.047Z,6.49
2023-04-19T08:48:11.015Z,6.53
2023-04-19T08:49:13.335Z,6.57
2023-04-19T08:50:31.203Z,6.67
2023-04-19T08:51:34.976Z,6.76
2023-04-19T08:52:51.847Z,6.72
2023-04-19T08:53:58.771Z,6.81
2023-04-19T08:55:08.514Z,6.90
2023-04-19T08:56:17.529Z,6.90
2023-04-19T08:57:25.874Z,6.92
2023-04-19T08:58:37.022Z,6.94
2023-04-19T08:59:49.264Z,6.92
2023-04-19T09:00:50.823Z,6.96
2023-04-19T09:01:52.444Z,6.99
2023-04-19T09:02:54.181Z,7.10
2023-04-19T09:04:07.138Z,6.97
2023-04-19T09:05:18.608Z,6.85
2023-04-19T09:06:20.490Z,6.92
2023-04-19T09:07:26.979Z,6.80
2023-04-19T09:08:30.589Z,6.96
2023-04-19T09:10:36.576Z,6.88
2023-04-19T09:11:38.134Z,6.95
2023-04-19T09:12:41.241Z,7.04
2023-04-19T09:13:42.810Z,7.11
2023-04-19T09:15:00.444Z,7.19
2023-04-19T09:16:04.476Z,7.25
2023-04-19T09:17:16.230Z,7.26
2023-04-19T09:18:17.872Z,7.31
2023-04-19T09:19:24.901Z,7.22
2023-04-19T09:20:40.252Z,7.35
2023-04-19T09:21:42.343Z,7.39
2023-04-19T09:23:03.927Z,7.47
2023-04-19T09:24:06.268Z,7.56
2023-04-19T09:26:22.818Z,7.44
2023-04-19T09:27:27.709Z,7.30
2023-04-19T09:28:29.377Z,7.18
2023-04-19T09:29:30.979Z,7.24
2023-04-19T09:30:35.931Z,7.13
2023-04-19T09:31:57.134Z,7.15
2023-04-19T09:32:58.812Z,7.24
2023-04-19T09:34:17.441Z,7.22
2023-04-19T09:35:18.964Z,7.32
2023-04-19T09:36:28.172Z,7.23
2023-04-19T09:37:51.427Z,7.30
2023-04-19T09:38:51.585Z,7.28
2023-04-19T09:39:53.558Z,7.24
2023-04-19T09:41:08.385Z,7.27
2023-04-19T09:42:09.980Z,7.30
2023-04-19T09:46:30.211Z,7.35
2023-04-19T09:47:31.837Z,7.36
2023-04-19T09:48:33.398Z,7.33
2023-04-19T09:49:46.068Z,7.26
2023-04-19T09:51:00.753Z,7.24
2023-04-19T09:52:05.604Z,7.27
2023-04-19T09:53:07.676Z,7.31
2023-04-19T09:54:10.540Z,7.37
2023-04-19T09:55:24.976Z,7.36
2023-04-19T09:56:29.743Z,7.44
2023-04-19T09:57:32.654Z,7.44
2023-04-19T09:59:38.749Z,7.37
2023-04-19T10:00:48.236Z,7.42
2023-04-19T10:01:55.848Z,7.55
2023-04-19T10:02:58.737Z,7.58
2023-04-19T10:04:14.492Z,7.56
2023-04-19T10:05:22.047Z,7.49
2023-04-19T10:06:40.093Z,7.51
2023-04-19T10:07:45.812Z,7.50
2023-04-19T10:08:49.911Z,7.55
2023-04-19T10:09:58.113Z,7.51
2023-04-19T10:11:04.785Z,7.46
2023-04-19T10:14:24.015Z,7.48
2023-04-19T10:15:27.950Z,7.47
2023-04-19T10:16:32.749Z,7.35
2023-04-19T10:17:34.704Z,7.34
2023-04-19T10:18:36.635Z,7.24
2023-04-19T10:19:40.538Z,7.11
2023-04-19T10:20:55.258Z,7.03
2023-04-19T10:21:57.283Z,6.87
2023-04-19T10:22:59.868Z,6.98
2023-04-19T10:24:02.487Z,7.11
2023-04-19T10:25:15.267Z,7.16
2023-04-19T10:26:16.794Z,7.17
2023-04-19T10:27:25.492Z,7.19
2023-04-19T10:28:30.316Z,7.19
2023-04-19T10:29:57.664Z,7.23
2023-04-19T10:31:00.881Z,7.21
2023-04-19T10:32:05.661Z,7.15
2023-04-19T10:33:07.295Z,7.19
2023-04-19T10:34:08.926Z,7.17
2023-04-19T10:35:17.840Z,7.12
2023-04-19T10:36:21.273Z,7.01
2023-04-19T10:37:25.778Z,7.00
2023-04-19T10:38:47.541Z,6.88
2023-04-19T10:39:49.312Z,6.95
2023-04-19T10:41:01.026Z,6.92
2023-04-19T10:42:02.525Z,6.95
2023-04-19T10:43:13.258Z,6.85
2023-04-19T10:44:14.767Z,6.84
2023-04-19T10:45:32.232Z,6.82
2023-04-19T10:46:33.839Z,6.89
2023-04-19T10:47:45.013Z,6.93
2023-04-19T10:48:54.400Z,6.92
2023-04-19T10:49:55.958Z,7.00
2023-04-19T10:50:58.934Z,6.87
2023-04-19T10:52:00.516Z,6.89
2023-04-19T10:53:43.551Z,6.92
2023-04-19T10:54:45.127Z,6.92
2023-04-19T10:55:50.682Z,6.89
2023-04-19T10:57:02.555Z,6.82
2023-04-19T10:58:05.974Z,6.80
2023-04-19T10:59:07.494Z,6.83
2023-04-19T11:00:21.993Z,6.94
2023-04-19T11:01:37.234Z,6.82
2023-04-19T11:02:39.137Z,6.87
2023-04-19T11:03:44.095Z,6.90
2023-04-19T11:04:48.614Z,6.94
2023-04-19T11:06:16.945Z,6.92
2023-04-19T11:07:18.588Z,6.94
2023-04-19T11:08:23.420Z,6.88
2023-04-19T11:09:33.131Z,6.93
2023-04-19T11:10:34.839Z,6.97
2023-04-19T11:11:36.596Z,6.97
2023-04-19T11:12:42.317Z,6.91
2023-04-19T11:13:44.160Z,6.85
2023-04-19T11:14:53.614Z,6.68
2023-04-19T11:15:59.030Z,6.57
2023-04-19T11:17:03.661Z,6.57
2023-04-19T11:18:12.610Z,6.60
2023-04-19T11:19:18.064Z,6.65
2023-04-19T11:20:23.722Z,6.76
2023-04-19T11:21:25.299Z,6.79
2023-04-19T11:22:39.116Z,6.78
2023-04-19T11:23:41.104Z,6.78
2023-04-19T11:24:46.044Z,6.87
2023-04-19T11:25:51.545Z,6.86
2023-04-19T11:26:55.735Z,6.86
2023-04-19T11:27:57.363Z,6.84
2023-04-19T11:28:58.915Z,6.87
2023-04-19T11:30:17.076Z,6.89
2023-04-19T11:31:18.881Z,6.88
2023-04-19T11:32:21.400Z,6.86
2023-04-19T11:33:23.713Z,6.89
2023-04-19T11:34:25.247Z,6.90
2023-04-19T11:35:29.891Z,6.89
2023-04-19T11:36:31.647Z,6.89
2023-04-19T11:37:36.242Z,6.93
2023-04-19T11:38:38.147Z,6.89
2023-04-19T11:39:46.861Z,6.83
2023-04-19T11:40:57.909Z,6.91
2023-04-19T11:41:59.552Z,6.94
2023-04-19T11:43:03.937Z,6.91
2023-04-19T11:44:13.439Z,6.75
2023-04-19T11:45:30.365Z,6.84
2023-04-19T11:46:33.201Z,6.84
2023-04-19T11:47:35.141Z,6.86
2023-04-19T11:48:38.042Z,6.83
2023-04-19T11:49:39.670Z,6.81
2023-04-19T11:50:43.273Z,6.84
2023-04-19T11:51:44.836Z,6.76
2023-04-19T11:52:49.480Z,6.80
2023-04-19T11:53:51.052Z,6.76
2023-04-19T11:54:53.485Z,6.81
2023-04-19T11:55:57.533Z,6.75
2023-04-19T11:57:05.852Z,6.82
2023-04-19T11:58:07.796Z,6.79
2023-04-19T11:59:09.322Z,6.75
2023-04-19T12:00:11.771Z,6.81
2023-04-19T12:01:19.865Z,6.86
2023-04-19T12:02:21.619Z,6.87
2023-04-19T12:03:26.201Z,6.84
2023-04-19T12:04:28.503Z,6.69
2023-04-19T12:05:30.576Z,6.74
2023-04-19T12:06:32.222Z,6.81
2023-04-19T12:07:33.769Z,6.79
2023-04-19T12:08:36.800Z,6.80
2023-04-19T12:09:38.800Z,6.80
2023-04-19T12:10:56.007Z,6.91
2023-04-19T12:11:57.613Z,6.91
2023-04-19T12:12:59.438Z,7.01
2023-04-19T12:14:10.881Z,7.03
2023-04-19T12:15:12.540Z,7.00
2023-04-19T12:16:14.400Z,6.96
2023-04-19T12:17:16.023Z,6.93
2023-04-19T12:18:17.912Z,6.98
2023-04-19T12:19:19.746Z,7.00
2023-04-19T12:20:30.198Z,6.96
2023-04-19T12:21:32.103Z,6.99
2023-04-19T12:22:33.674Z,6.88
2023-04-19T12:23:35.224Z,6.88
2023-04-19T12:24:37.672Z,6.91
2023-04-19T12:25:40.235Z,6.90
2023-04-19T12:27:02.025Z,6.82
2023-04-19T12:28:04.989Z,6.81
2023-04-19T12:29:06.794Z,6.80
2023-04-19T12:30:09.059Z,6.71
2023-04-19T12:31:10.725Z,6.69
2023-04-19T12:32:12.606Z,6.66
2023-04-19T12:33:14.358Z,6.66
2023-04-19T12:34:15.945Z,6.64
2023-04-19T12:35:17.565Z,6.64
2023-04-19T12:36:19.872Z,6.67
2023-04-19T12:37:21.403Z,6.74
2023-04-19T12:38:22.980Z,6.80
2023-04-19T12:39:24.591Z,6.86
2023-04-19T12:40:27.249Z,6.84
2023-04-19T12:41:28.813Z,6.75
2023-04-19T12:42:30.388Z,6.75
2023-04-19T12:43:32.434Z,6.71
2023-04-19T12:44:33.994Z,6.67
2023-04-19T12:45:35.561Z,6.69
2023-04-19T12:46:37.245Z,6.74
2023-04-19T12:47:40.150Z,6.68
2023-04-19T12:48:41.711Z,6.72
2023-04-19T12:49:43.272Z,6.73
2023-04-19T12:50:44.833Z,6.74
2023-04-19T12:51:46.593Z,6.83
2023-04-19T12:52:48.160Z,6.85
2023-04-19T12:53:50.535Z,6.92
2023-04-19T12:54:52.095Z,6.96
2023-04-19T12:55:53.654Z,6.95
2023-04-19T12:56:55.299Z,6.94
2023-04-19T12:57:56.842Z,7.00
2023-04-19T12:58:58.436Z,6.98
2023-04-19T13:00:00.057Z,6.95
2023-04-19T13:01:01.665Z,6.97
2023-04-19T13:02:03.440Z,6.86
2023-04-19T13:03:05.210Z,6.85
2023-04-19T13:04:06.960Z,6.88
2023-04-19T13:05:09.058Z,6.78
2023-04-19T13:06:10.626Z,6.78
2023-04-19T13:07:12.195Z,6.77
2023-04-19T13:08:13.728Z,6.72
2023-04-19T13:09:15.472Z,6.74
2023-04-19T13:10:17.314Z,6.69
2023-04-19T13:11:18.879Z,6.64
2023-04-19T13:12:20.436Z,6.58
2023-04-19T13:13:22.231Z,6.62
2023-04-19T13:14:25.258Z,6.74
2023-04-19T13:15:26.896Z,6.73
2023-04-19T13:16:28.536Z,6.73
2023-04-19T13:17:30.175Z,6.70
2023-04-19T13:18:31.741Z,6.81
2023-04-19T13:19:33.318Z,6.76
2023-04-19T13:20:34.911Z,6.75
2023-04-19T13:21:36.517Z,6.74
2023-04-19T13:22:38.138Z,6.72
2023-04-19T13:23:39.770Z,6.74
2023-04-19T13:24:41.446Z,6.76
2023-04-19T13:25:43.012Z,6.66
2023-04-19T13:26:44.630Z,6.70
2023-04-19T13:27:46.179Z,6.72
2023-04-19T13:28:47.761Z,6.72
2023-04-19T13:29:49.371Z,6.73
2023-04-19T13:30:50.991Z,6.72
2023-04-19T13:31:52.652Z,6.74
2023-04-19T13:32:54.336Z,6.73
2023-04-19T13:33:56.542Z,6.59
2023-04-19T13:34:58.126Z,6.52
2023-04-19T13:35:59.940Z,6.54
2023-04-19T13:37:01.524Z,6.60
2023-04-19T13:38:03.148Z,6.57
2023-04-19T13:39:06.876Z,6.65
2023-04-19T13:40:18.864Z,6.60
2023-04-19T13:41:21.352Z,6.55
2023-04-19T13:42:23.001Z,6.49
2023-04-19T13:43:24.583Z,6.57
2023-04-19T13:44:26.166Z,6.55
2023-04-19T13:45:27.758Z,6.58
2023-04-19T13:46:29.363Z,6.58
2023-04-19T13:47:31.079Z,6.57
2023-04-19T13:48:32.775Z,6.58
2023-04-19T13:49:34.343Z,6.56
2023-04-19T13:50:35.972Z,6.46
2023-04-19T13:51:48.992Z,6.48
2023-04-19T13:52:51.693Z,6.46
2023-04-19T13:53:53.464Z,6.41
2023-04-19T13:54:55.077Z,6.33
2023-04-19T13:55:56.764Z,6.36
2023-04-19T13:56:58.361Z,6.49
2023-04-19T13:58:00.004Z,6.53
2023-04-19T13:59:01.672Z,6.57
2023-04-19T14:00:04.079Z,6.53
2023-04-19T14:01:08.606Z,6.59
2023-04-19T14:02:10.246Z,6.68
2023-04-19T14:03:12.001Z,6.71
2023-04-19T14:04:14.221Z,6.71
2023-04-19T14:05:16.112Z,6.71
2023-04-19T14:06:17.711Z,6.82
2023-04-19T14:07:19.306Z,6.92
2023-04-19T14:08:20.895Z,6.96
2023-04-19T14:09:22.457Z,6.94
2023-04-19T14:10:24.005Z,6.89
2023-04-19T14:11:25.796Z,6.82
2023-04-19T14:12:27.367Z,6.87
2023-04-19T14:13:28.998Z,6.89
2023-04-19T14:14:32.323Z,6.87
2023-04-19T14:15:34.211Z,6.83
2023-04-19T14:16:35.821Z,6.85
2023-04-19T14:17:37.449Z,6.87
2023-04-19T14:18:39.420Z,6.88
2023-04-19T14:19:41.045Z,6.87
2023-04-19T14:20:42.710Z,6.91
2023-04-19T14:21:44.301Z,6.96
2023-04-19T14:22:46.123Z,6.96
2023-04-19T14:23:48.105Z,6.96
2023-04-19T14:24:49.753Z,6.93
2023-04-19T14:25:51.540Z,6.85
2023-04-19T14:27:09.125Z,6.93